• Join FlightAware (Why Join?)
  • Login
  • US Flag 
10:09PM EST


 

Airport Tracker/Info


-or-


 

Live Flight TrackerFlight Track Log ✈ SWA1719 ✈ 19-Apr-2013 ✈ KABQ - KHOU

Flight Track Log - Related Links

Times and Time Zones

All times are in EDT time to prevent confusion due to time zone crossing. See the SWA1719 flight status page for this flight to view local times or setup timezone preferences in your user account.

Time Position Orientation Groundspeed Altitude Reporting Facility
EDT Latitude Longitude Course Direction KTS MPH feet Rate Location/Type
09:06AM 35.0439 -106.5817 116° Southeast 163 188 6,100  Level Albuquerque Center
09:07AM 35.0314 -106.5592 124° Southeast 183 211 6,900 1,860 Climbing Albuquerque Center
09:08AM 34.9786 -106.5131 144° Southeast 267 307 8,800 2,220 Climbing Albuquerque Center
09:09AM 34.8914 -106.5175 182° South 290 334 11,600 2,760 Climbing Albuquerque Center
09:10AM 34.8031 -106.4769 159° South 357 411 14,500 3,120 Climbing Albuquerque Center
09:11AM 34.7572 -106.3633 116° Southeast 376 433 17,900 2,760 Climbing Albuquerque Center
09:12AM 34.8770 -106.2080 116° Southeast  Level Estimated
09:12AM 34.7006 -106.2494 121° Southeast 388 447 20,200  Level Albuquerque Center
09:13AM 34.6442 -106.1250 119° Southeast 407 468 22,800 2,520 Climbing Albuquerque Center
09:14AM 34.5839 -105.9983 120° Southeast 422 486 25,300 2,280 Climbing Albuquerque Center
09:15AM 34.5214 -105.8669 120° Southeast 439 505 27,500 1,980 Climbing Albuquerque Center
09:16AM 34.4575 -105.7333 120° Southeast 451 519 29,300 1,680 Climbing Albuquerque Center
09:17AM 34.3908 -105.5964 121° Southeast 464 534 31,000 1,560 Climbing Albuquerque Center
09:18AM 34.3244 -105.4556 120° Southeast 474 545 32,500 1,560 Climbing Albuquerque Center
09:19AM 34.2558 -105.3144 120° Southeast 481 554 34,200 1,440 Climbing Albuquerque Center
09:20AM 34.1881 -105.1733 120° Southeast 482 555 35,500 1,380 Climbing Albuquerque Center
09:21AM 34.1194 -105.0325 120° Southeast 483 556 37,000 1,020 Climbing Albuquerque Center
09:22AM 34.0472 -104.8861 121° Southeast 495 570 37,600 720 Climbing Albuquerque Center
09:23AM 33.9714 -104.7333 121° Southeast 506 582 38,500 660 Climbing Albuquerque Center
09:24AM 33.8989 -104.5872 121° Southeast 508 585 39,000 240 Climbing Albuquerque Center
09:25AM 33.8261 -104.4403 121° Southeast 511 588 39,000  Level Albuquerque Center
09:26AM 33.7464 -104.2811 121° Southeast 515 593 39,000  Level Albuquerque Center
09:27AM 33.6722 -104.1314 121° Southeast 518 596 39,000  Level Albuquerque Center
09:28AM 33.5986 -103.9856 121° Southeast 513 590 39,000  Level Albuquerque Center
09:29AM 33.5253 -103.8378 121° Southeast 514 592 39,000  Level Albuquerque Center
09:30AM 33.4511 -103.6922 121° Southeast 512 589 39,000  Level Albuquerque Center
09:31AM 33.3883 -103.5586 119° Southeast 514 592 39,000  Level Albuquerque Center
09:32AM 33.3133 -103.4147 122° Southeast 513 590 39,000  Level Albuquerque Center
09:33AM 33.2369 -103.2728 123° Southeast 511 588 39,000  Level Albuquerque Center
09:34AM 33.1622 -103.1281 122° Southeast 511 588 39,000  Level Albuquerque Center
09:34AM 33.1314 -103.0689 122° Southeast 514 592 39,000  Level Fort Worth Center
09:35AM 33.0608 -102.9206 120° Southeast 514 592 39,000  Level Fort Worth Center
09:36AM 32.9836 -102.7797 123° Southeast 514 592 39,000  Level Fort Worth Center
09:37AM 32.9103 -102.6367 121° Southeast 514 592 39,000  Level Fort Worth Center
09:38AM 32.8389 -102.4967 121° Southeast 509 586 39,000  Level Fort Worth Center
09:39AM 32.7631 -102.3539 122° Southeast 509 586 39,000  Level Fort Worth Center
09:40AM 32.6872 -102.2117 122° Southeast 514 592 39,000  Level Fort Worth Center
09:41AM 32.6053 -102.0569 122° Southeast 514 592 39,000  Level Fort Worth Center
09:42AM 32.5272 -101.9147 123° Southeast 514 592 39,000  Level Fort Worth Center
09:43AM 32.4508 -101.7708 122° Southeast 514 592 39,000  Level Fort Worth Center
09:44AM 32.3742 -101.6269 122° Southeast 514 592 39,000  Level Fort Worth Center
09:45AM 32.2997 -101.4833 121° Southeast 514 592 39,000  Level Fort Worth Center
09:46AM 32.2208 -101.3397 123° Southeast 514 592 39,000  Level Fort Worth Center
09:47AM 32.1417 -101.1967 123° Southeast 514 592 39,000  Level Fort Worth Center
09:48AM 32.0644 -101.0536 122° Southeast 514 592 39,000  Level Fort Worth Center
09:49AM 31.9872 -100.9086 122° Southeast 514 592 39,000  Level Fort Worth Center
09:50AM 31.9075 -100.7636 123° Southeast 514 592 39,000  Level Fort Worth Center
09:51AM 31.8281 -100.6189 123° Southeast 521 600 39,000  Level Fort Worth Center
09:52AM 31.7500 -100.4769 123° Southeast 521 600 39,000  Level Fort Worth Center
09:53AM 31.6678 -100.3350 124° Southeast 521 600 39,000  Level Fort Worth Center
09:54AM 31.5897 -100.1886 122° Southeast 516 594 39,000  Level Fort Worth Center
09:55AM 31.5114 -100.0475 123° Southeast 516 594 39,000  Level Fort Worth Center
09:58AM 31.3350 -99.7336 123° Southeast 524 603 39,000  Level Houston Center
09:59AM 31.2542 -99.5900 123° Southeast 527 606 39,000  Level Houston Center
10:00AM 31.1892 -99.4361 116° Southeast 534 615 39,000  Level Houston Center
10:01AM 31.1456 -99.2289 104° East 546 628 39,000  Level Houston Center
10:02AM 31.1117 -99.0683 104° East 541 623 39,000  Level Houston Center
10:03AM 31.0764 -98.8969 103° East 540 621 39,000  Level Houston Center
10:04AM 31.0397 -98.7269 104° East 536 617 39,000 -240 Level Houston Center
10:05AM 30.9967 -98.5253 104° East 545 627 38,600 -660 Descending Houston Center
10:06AM 30.9606 -98.3536 104° East 543 625 37,700 -840 Descending Houston Center
10:07AM 30.9231 -98.1786 104° East 552 635 37,000 -360 Descending Houston Center
10:08AM 30.8856 -98.0069 104° East 546 628 37,000  Level Houston Center
10:09AM 30.8475 -97.8342 104° East 548 631 37,000  Level Houston Center
10:10AM 30.8089 -97.6639 105° East 544 626 37,000  Level Houston Center
10:11AM 30.7711 -97.4928 104° East 546 628 37,000 -840 Level Houston Center
10:12AM 30.7494 -97.2867 97° East 565 650 35,300 -2,220 Descending Houston Center
10:13AM 30.7467 -97.1047 91° East 569 655 32,500 -2,340 Descending Houston Center
10:14AM 30.7447 -96.9275 91° East 547 629 30,600 -2,280 Descending Houston Center
10:15AM 30.7444 -96.7581 90° East 527 606 27,800 -2,640 Descending Houston Center
10:16AM 30.7444 -96.5858 90° East 530 610 25,200 -2,880 Descending Houston Center
10:17AM 30.6872 -96.4553 117° Southeast 467 537 21,900 -3,300 Descending Houston Center
10:18AM 30.5578 -96.4083 163° South 410 472 18,500 -2,520 Descending Houston Center
10:19AM 30.4569 -96.3506 154° Southeast 401 461 16,700 -1,860 Descending Houston Center
10:20AM 30.3619 -96.2942 153° Southeast 383 441 14,700 -1,980 Descending Houston Center
10:21AM 30.2708 -96.2414 153° Southeast 365 420 12,700 -1,800 Descending Houston Center
10:22AM 30.1819 -96.1931 155° Southeast 353 406 11,000 -1,080 Descending Houston Center
10:23AM 30.1203 -96.1622 157° South 351 404 11,000  Level Houston Center
10:23AM 30.0839 -96.1419 154° Southeast 352 405 11,000  Level Houston Center
10:24AM 30.0300 -96.1144 156° South 354 407 11,000 -420 Level Houston Center
10:25AM 29.9947 -96.0936 153° Southeast 352 405 10,600 -900 Descending Houston Center
10:25AM 29.9417 -96.0403 139° Southeast 336 387 10,000 -600 Descending Houston Center
10:26AM 29.9242 -96.0197 134° Southeast 340 391 10,000  Level Houston Center
10:26AM 29.8925 -95.9808 133° Southeast 313 360 10,000  Level Houston Center
10:27AM 29.8683 -95.9544 137° Southeast 315 362 10,000 -360 Level Houston Center
10:27AM 29.8247 -95.9019 134° Southeast 307 353 9,600 -1,080 Descending Houston Center
10:28AM 29.7975 -95.8692 134° Southeast 308 354 8,900 -1,620 Descending Houston Center
10:28AM 29.7636 -95.8269 133° Southeast 309 356 8,000 -1,500 Descending Houston Center
10:29AM 29.7375 -95.7978 136° Southeast 311 358 7,400 -1,200 Descending Houston Center
10:29AM 29.7028 -95.7547 133° Southeast 313 360 6,800 -1,200 Descending Houston Center
10:30AM 29.6781 -95.7264 135° Southeast 311 358 6,200 -780 Descending Houston Center
10:30AM 29.6439 -95.6847 133° Southeast 296 341 6,000 -240 Descending Houston Center
10:31AM 29.6208 -95.6594 136° Southeast 300 345 6,000  Level Houston Center
10:31AM 29.6025 -95.6197 118° Southeast 259 298 6,000 -420 Level Houston Center
10:32AM 29.5956 -95.5836 102° East 260 299 5,600 -1,080 Descending Houston Center
10:32AM 29.5842 -95.5331 105° East 245 282 4,800 -1,500 Descending Houston Center
10:33AM 29.5753 -95.4919 104° East 250 288 4,100 -1,320 Descending Houston Center
10:33AM 29.5667 -95.4558 105° East 239 275 3,500 -900 Descending Houston Center
10:34AM 29.5597 -95.4217 103° East 237 273 3,200 -780 Descending Houston Center
10:34AM 29.5531 -95.3975 108° East 199 229 2,800 -1,020 Descending Houston Center
10:35AM 29.5633 -95.3694 67° East 196 226 2,200 -900 Descending Houston Center
10:35AM 29.5744 -95.3567 45° Northeast 119 137 1,900 -600 Descending Houston Center
10:36AM 29.5869 -95.3436 42° Northeast 145 167 1,600 -600 Descending Houston Center
10:36AM 29.5975 -95.3322 43° Northeast 114 131 1,300 -720 Descending Houston Center
10:37AM 29.6108 -95.3175 44° Northeast 126 145 900 -720 Descending Houston Center
10:37AM 29.6242 -95.3025 44° Northeast 126 145 500 -720 Descending Houston Center
10:38AM 29.6369 -95.2883 44° Northeast 126 145 200 -480 Descending Houston Center
10:40AM 29.6454 -95.2789 51° Northeast  Level Estimated